createdAt,value
2018-01-22T00:00:53.247Z,8.37
2018-01-22T00:03:21.443Z,8.27
2018-01-22T00:05:49.652Z,8.70
2018-01-22T00:08:17.863Z,7.93
2018-01-22T00:10:45.299Z,9.03
2018-01-22T00:13:12.731Z,7.27
2018-01-22T00:15:40.177Z,7.40
2018-01-22T00:18:07.603Z,8.30
2018-01-22T00:20:35.044Z,7.80
2018-01-22T00:23:03.243Z,7.20
2018-01-22T00:25:31.446Z,7.50
2018-01-22T00:27:59.645Z,8.30
2018-01-22T00:30:27.851Z,7.43
2018-01-22T00:32:55.289Z,7.83
2018-01-22T00:35:22.722Z,8.50
2018-01-22T00:37:50.160Z,8.60
2018-01-22T00:40:17.608Z,9.03
2018-01-22T00:42:45.031Z,7.97
2018-01-22T00:45:12.467Z,7.57
2018-01-22T00:47:39.908Z,10.17
2018-01-22T00:50:08.106Z,7.73
2018-01-22T00:52:36.314Z,9.30
2018-01-22T00:55:03.759Z,8.20
2018-01-22T00:57:31.191Z,8.70
2018-01-22T00:59:58.623Z,8.80
2018-01-22T01:02:26.072Z,9.13
2018-01-22T01:04:53.491Z,9.93
2018-01-22T01:07:21.696Z,8.40
2018-01-22T01:09:49.886Z,7.97
2018-01-22T01:12:18.089Z,8.17
2018-01-22T01:14:46.283Z,8.60
2018-01-22T01:17:13.765Z,8.17
2018-01-22T01:19:41.184Z,9.10
2018-01-22T01:22:08.616Z,8.97
2018-01-22T01:24:36.047Z,9.50
2018-01-22T01:27:03.487Z,9.70
2018-01-22T01:29:30.926Z,9.20
2018-01-22T01:31:58.367Z,11.30
2018-01-22T01:34:26.570Z,9.13
2018-01-22T01:36:54.767Z,9.80
2018-01-22T01:39:22.207Z,12.33
2018-01-22T01:41:49.667Z,12.50
2018-01-22T01:44:17.094Z,12.60
2018-01-22T01:46:45.317Z,11.90
2018-01-22T01:49:12.751Z,13.27
2018-01-22T01:51:40.188Z,11.90
2018-01-22T01:54:07.622Z,13.00
2018-01-22T01:56:35.074Z,13.80
2018-01-22T01:59:02.519Z,13.67
2018-01-22T02:01:29.959Z,12.23
2018-01-22T02:03:58.167Z,12.80
2018-01-22T02:06:26.379Z,11.77
2018-01-22T02:08:54.594Z,13.73
2018-01-22T02:11:22.035Z,11.47
2018-01-22T02:13:49.479Z,10.87
2018-01-22T02:16:16.924Z,13.30
2018-01-22T02:18:45.129Z,11.30
2018-01-22T02:21:12.581Z,11.57
2018-01-22T02:23:40.007Z,10.80
2018-01-22T02:26:07.455Z,10.33
2018-01-22T02:28:35.664Z,10.60
2018-01-22T02:31:03.872Z,9.13
2018-01-22T02:33:31.308Z,11.97
2018-01-22T02:35:58.750Z,10.80
2018-01-22T02:38:26.187Z,11.80
2018-01-22T02:40:54.396Z,11.00
2018-01-22T02:43:22.607Z,11.90
2018-01-22T02:45:50.812Z,10.00
2018-01-22T02:48:18.244Z,8.50
2018-01-22T02:50:45.684Z,9.23
2018-01-22T02:53:13.126Z,10.70
2018-01-22T02:55:41.336Z,9.40
2018-01-22T02:58:09.543Z,12.93
2018-01-22T03:00:36.989Z,10.40
2018-01-22T03:03:04.422Z,9.70
2018-01-22T03:05:31.872Z,8.67
2018-01-22T03:08:00.072Z,9.17
2018-01-22T03:10:28.272Z,10.40
2018-01-22T03:12:55.715Z,12.40
2018-01-22T03:15:23.152Z,8.37
2018-01-22T03:17:50.643Z,6.97
2018-01-22T03:20:18.083Z,8.20
2018-01-22T03:22:46.280Z,7.30
2018-01-22T03:25:14.486Z,8.40
2018-01-22T03:27:42.687Z,9.10
2018-01-22T03:30:10.900Z,8.70
2018-01-22T03:32:38.335Z,7.60
2018-01-22T03:35:05.775Z,10.13
2018-01-22T03:37:33.224Z,7.90
2018-01-22T03:40:01.423Z,7.53
2018-01-22T03:42:29.632Z,7.10
2018-01-22T03:44:57.076Z,6.97
2018-01-22T03:47:24.513Z,7.43
2018-01-22T03:49:51.951Z,9.40
2018-01-22T03:52:19.387Z,7.00
2018-01-22T03:54:46.819Z,8.60
2018-01-22T03:57:15.027Z,9.63
2018-01-22T03:59:43.233Z,10.20
2018-01-22T04:02:10.675Z,10.93
2018-01-22T04:04:38.115Z,10.53
2018-01-22T04:07:05.557Z,10.67
2018-01-22T04:09:33.754Z,12.27
2018-01-22T04:12:01.971Z,12.13
2018-01-22T04:14:29.407Z,11.33
2018-01-22T04:16:56.851Z,11.30
2018-01-22T04:19:24.291Z,12.00
2018-01-22T04:21:52.497Z,10.00
2018-01-22T04:24:20.695Z,8.10
2018-01-22T04:26:48.908Z,10.60
2018-01-22T04:29:16.335Z,9.53
2018-01-22T04:31:43.778Z,10.30
2018-01-22T04:34:11.659Z,9.67
2018-01-22T04:36:39.859Z,8.17
2018-01-22T04:39:07.299Z,11.07
2018-01-22T04:41:34.743Z,10.20
2018-01-22T04:44:02.171Z,9.50
2018-01-22T04:46:29.619Z,9.37
2018-01-22T04:48:57.065Z,10.93
2018-01-22T04:51:24.514Z,9.67
2018-01-22T04:53:51.947Z,11.30
2018-01-22T04:56:19.387Z,9.47
2018-01-22T04:58:47.591Z,10.13
2018-01-22T05:01:15.795Z,9.37
2018-01-22T05:03:43.999Z,9.33
2018-01-22T05:06:11.431Z,9.67
2018-01-22T05:08:38.913Z,9.63
2018-01-22T05:11:06.340Z,8.90
2018-01-22T05:13:33.795Z,10.20
2018-01-22T05:16:01.237Z,9.93
2018-01-22T05:18:28.676Z,10.20
2018-01-22T05:20:56.883Z,10.20
2018-01-22T05:23:25.087Z,9.30
2018-01-22T05:25:52.526Z,10.27
2018-01-22T05:28:19.963Z,8.37
2018-01-22T05:30:47.406Z,11.67
2018-01-22T05:33:14.839Z,8.73
2018-01-22T05:35:42.276Z,7.73
2018-01-22T05:38:10.480Z,11.60
2018-01-22T05:40:38.674Z,14.37
2018-01-22T05:43:06.890Z,11.60
2018-01-22T05:45:34.319Z,8.63
2018-01-22T05:48:01.763Z,8.40
2018-01-22T05:50:29.195Z,8.20
2018-01-22T05:52:56.640Z,6.60
2018-01-22T05:55:24.071Z,7.17
2018-01-22T05:57:52.271Z,6.60
2018-01-22T06:00:20.467Z,6.63
2018-01-22T06:02:48.672Z,7.40
2018-01-22T06:05:16.868Z,9.03
2018-01-22T06:07:45.094Z,6.50
2018-01-22T06:10:12.511Z,7.37
2018-01-22T06:12:39.951Z,11.57
2018-01-22T06:15:07.396Z,8.57
2018-01-22T06:17:35.604Z,9.27
2018-01-22T06:20:03.810Z,8.97
2018-01-22T06:22:32.023Z,11.50
2018-01-22T06:24:59.459Z,9.40
2018-01-22T06:27:26.895Z,8.33
2018-01-22T06:29:54.327Z,8.93
2018-01-22T06:32:21.820Z,7.07
2018-01-22T06:34:50.019Z,8.50
2018-01-22T06:37:18.227Z,8.73
2018-01-22T06:39:45.665Z,9.70
2018-01-22T06:42:13.107Z,10.60
2018-01-22T06:44:40.539Z,9.00
2018-01-22T06:47:07.991Z,10.00
2018-01-22T06:49:35.423Z,10.27
2018-01-22T06:52:03.639Z,8.60
2018-01-22T06:54:31.071Z,9.70
2018-01-22T06:56:58.508Z,9.90
2018-01-22T06:59:25.943Z,9.70
2018-01-22T07:01:53.383Z,10.03
2018-01-22T07:04:20.825Z,10.90
2018-01-22T07:06:49.020Z,9.37
2018-01-22T07:09:17.271Z,8.90
2018-01-22T07:11:44.707Z,9.30
2018-01-22T07:14:12.155Z,7.80
2018-01-22T07:16:39.615Z,7.33
2018-01-22T07:19:07.032Z,8.93
2018-01-22T07:21:35.250Z,8.70
2018-01-22T07:24:03.451Z,7.97
2018-01-22T07:26:30.907Z,8.50
2018-01-22T07:28:59.115Z,8.47
2018-01-22T07:31:27.316Z,8.90
2018-01-22T07:33:55.523Z,8.00
2018-01-22T07:36:22.963Z,7.30
2018-01-22T07:38:50.403Z,6.50
2018-01-22T07:41:17.831Z,9.30
2018-01-22T07:43:45.279Z,7.30
2018-01-22T07:46:12.707Z,7.13
2018-01-22T07:48:40.150Z,6.70
2018-01-22T07:51:07.643Z,8.10
2018-01-22T07:53:35.079Z,6.67
2018-01-22T07:56:03.288Z,7.60
2018-01-22T07:58:30.731Z,7.93
2018-01-22T08:00:58.171Z,7.57
2018-01-22T08:03:25.619Z,9.23
2018-01-22T08:05:53.055Z,8.63
2018-01-22T08:08:20.503Z,7.70
2018-01-22T08:10:47.947Z,8.73
2018-01-22T08:13:16.171Z,7.70
2018-01-22T08:15:43.607Z,8.00
2018-01-22T08:18:11.043Z,9.13
2018-01-22T08:20:38.483Z,6.43
2018-01-22T08:23:05.924Z,5.43
2018-01-22T08:25:33.369Z,7.67
2018-01-22T08:28:01.576Z,8.03
2018-01-22T08:30:29.011Z,8.30
2018-01-22T08:32:56.456Z,8.20
2018-01-22T08:35:23.892Z,7.20
2018-01-22T08:37:52.100Z,7.13
2018-01-22T08:40:20.303Z,7.87
2018-01-22T08:42:48.513Z,7.60
2018-01-22T08:45:15.938Z,7.60
2018-01-22T08:47:43.390Z,11.53
2018-01-22T08:50:10.827Z,10.17
2018-01-22T08:52:39.040Z,7.57
2018-01-22T08:55:07.261Z,7.90
2018-01-22T08:57:34.689Z,7.10
2018-01-22T09:00:02.568Z,7.23
2018-01-22T09:02:30.006Z,6.50
2018-01-22T09:04:57.443Z,7.27
2018-01-22T09:07:24.871Z,6.90
2018-01-22T09:09:52.307Z,6.73
2018-01-22T09:12:19.744Z,6.90
2018-01-22T09:14:47.179Z,5.70
2018-01-22T09:17:15.383Z,6.00
2018-01-22T09:19:43.597Z,5.80
2018-01-22T09:22:11.036Z,4.67
2018-01-22T09:24:38.477Z,5.80
2018-01-22T09:27:05.912Z,6.43
2018-01-22T09:29:33.359Z,4.80
2018-01-22T09:32:00.787Z,4.63
2018-01-22T09:34:28.999Z,5.47
2018-01-22T09:36:57.195Z,5.87
2018-01-22T09:39:25.401Z,4.20
2018-01-22T09:41:52.831Z,4.40
2018-01-22T09:44:21.039Z,4.10
2018-01-22T09:46:48.470Z,5.50
2018-01-22T09:49:15.907Z,3.60
2018-01-22T09:51:43.336Z,4.70
2018-01-22T09:54:10.778Z,3.80
2018-01-22T09:56:38.211Z,4.40
2018-01-22T09:59:05.647Z,5.73
2018-01-22T10:01:33.851Z,3.77
2018-01-22T10:04:02.051Z,4.57
2018-01-22T10:06:30.247Z,4.10
2018-01-22T10:08:58.488Z,3.80
2018-01-22T10:11:25.902Z,5.10
2018-01-22T10:13:53.342Z,3.77
2018-01-22T10:16:20.767Z,4.80
2018-01-22T10:18:48.214Z,4.80
2018-01-22T10:21:15.643Z,5.10
2018-01-22T10:23:43.847Z,5.27
2018-01-22T10:26:12.051Z,6.10
2018-01-22T10:28:40.255Z,5.70
2018-01-22T10:31:07.687Z,7.57
2018-01-22T10:33:35.134Z,8.40
2018-01-22T10:36:02.578Z,8.90
2018-01-22T10:38:30.011Z,6.80
2018-01-22T10:40:57.452Z,7.20
2018-01-22T10:43:24.895Z,8.10
2018-01-22T10:45:52.327Z,9.97
2018-01-22T10:48:19.760Z,9.90
2018-01-22T10:50:47.223Z,6.30
2018-01-22T10:53:14.648Z,5.33
2018-01-22T10:55:42.855Z,4.87
2018-01-22T10:58:10.283Z,4.07
2018-01-22T11:00:37.719Z,5.67
2018-01-22T11:03:05.162Z,5.07
2018-01-22T11:05:32.595Z,6.40
2018-01-22T11:08:00.029Z,6.03
2018-01-22T11:10:27.455Z,6.43
2018-01-22T11:12:54.888Z,5.33
2018-01-22T11:15:28.156Z,7.07
2018-01-22T11:17:55.599Z,8.00
2018-01-22T11:20:23.807Z,6.20
2018-01-22T11:22:52.002Z,6.47
2018-01-22T11:25:20.274Z,6.70
2018-01-22T11:27:47.692Z,6.10
2018-01-22T11:30:15.157Z,6.00
2018-01-22T11:32:43.356Z,6.40
2018-01-22T11:35:11.567Z,6.10
2018-01-22T11:37:39.756Z,5.83
2018-01-22T11:40:07.959Z,6.70
2018-01-22T11:42:36.159Z,6.90
2018-01-22T11:45:04.367Z,6.60
2018-01-22T11:47:32.571Z,5.40
2018-01-22T11:50:00.036Z,6.73
2018-01-22T11:52:27.447Z,5.77
2018-01-22T11:54:54.891Z,7.20
2018-01-22T11:57:23.091Z,6.63
2018-01-22T11:59:51.316Z,5.20
2018-01-22T12:02:18.754Z,8.27
2018-01-22T12:04:46.202Z,10.00
2018-01-22T12:07:13.638Z,6.60
2018-01-22T12:09:41.840Z,6.63
2018-01-22T12:12:10.117Z,6.60
2018-01-22T12:14:37.553Z,4.27
2018-01-22T12:17:04.987Z,5.20
2018-01-22T12:19:32.427Z,6.77
2018-01-22T12:21:59.876Z,7.50
2018-01-22T12:24:27.311Z,5.77
2018-01-22T12:26:54.746Z,3.40
2018-01-22T12:29:22.207Z,10.03
2018-01-22T12:31:50.414Z,10.60
2018-01-22T12:34:18.627Z,9.40
2018-01-22T12:36:46.083Z,8.37
2018-01-22T12:39:13.507Z,5.37
2018-01-22T12:41:40.947Z,12.43
2018-01-22T12:44:09.159Z,9.70
2018-01-22T12:46:36.609Z,8.77
2018-01-22T12:49:04.035Z,5.00
2018-01-22T12:51:31.471Z,5.07
2018-01-22T12:53:59.675Z,4.97
2018-01-22T12:56:27.883Z,7.20
2018-01-22T12:58:56.083Z,11.63
2018-01-22T13:01:23.528Z,11.80
2018-01-22T13:03:50.963Z,7.93
2018-01-22T13:06:18.416Z,11.60
2018-01-22T13:08:46.611Z,8.10
2018-01-22T13:11:14.867Z,3.30
2018-01-22T13:13:43.018Z,3.83
2018-01-22T13:16:11.219Z,6.30
2018-01-22T13:18:39.420Z,11.50
2018-01-22T13:21:06.867Z,60.87
2018-01-22T13:23:34.298Z,24.33
2018-01-22T13:26:01.748Z,11.00
2018-01-22T13:28:29.175Z,9.27
2018-01-22T13:30:56.627Z,10.90
2018-01-22T13:33:24.826Z,6.97
2018-01-22T13:35:52.272Z,6.47
2018-01-22T13:38:19.699Z,5.77
2018-01-22T13:40:52.916Z,7.80
2018-01-22T13:43:20.352Z,10.10
2018-01-22T13:45:47.793Z,7.40
2018-01-22T13:48:15.219Z,7.53
2018-01-22T13:50:42.666Z,10.07
2018-01-22T13:53:10.147Z,6.00
2018-01-22T13:55:37.595Z,5.10
2018-01-22T13:58:05.028Z,4.27
2018-01-22T14:00:32.471Z,3.57
2018-01-22T14:02:59.913Z,3.20
2018-01-22T14:05:27.351Z,11.30
2018-01-22T14:07:54.789Z,11.87
2018-01-22T14:10:22.991Z,7.13
2018-01-22T14:12:50.423Z,6.67
2018-01-22T14:15:17.868Z,4.20
2018-01-22T14:17:45.303Z,6.70
2018-01-22T14:20:12.751Z,4.80
2018-01-22T14:22:40.183Z,5.00
2018-01-22T14:25:08.377Z,4.60
2018-01-22T14:27:36.587Z,4.33
2018-01-22T14:30:04.783Z,4.33
2018-01-22T14:32:33.138Z,3.50
2018-01-22T14:35:00.647Z,3.50
2018-01-22T14:37:28.083Z,3.30
2018-01-22T14:39:55.516Z,4.50
2018-01-22T14:42:23.733Z,13.00
2018-01-22T14:44:51.928Z,8.40
2018-01-22T14:47:20.135Z,6.63
2018-01-22T14:49:47.570Z,4.57
2018-01-22T14:52:15.005Z,4.70
2018-01-22T14:54:42.433Z,4.00
2018-01-22T14:57:09.875Z,3.80
2018-01-22T14:59:37.308Z,3.37
2018-01-22T15:02:04.743Z,3.60
2018-01-22T15:04:32.171Z,3.00
2018-01-22T15:07:00.375Z,3.80
2018-01-22T15:09:28.588Z,2.83
2018-01-22T15:11:56.023Z,3.63
2018-01-22T15:14:23.455Z,3.90
2018-01-22T15:16:50.892Z,3.33
2018-01-22T15:19:18.345Z,3.73
2018-01-22T15:21:45.783Z,2.70
2018-01-22T15:24:13.212Z,3.30
2018-01-22T15:26:40.654Z,3.40
2018-01-22T15:29:08.851Z,3.80
2018-01-22T15:31:37.055Z,2.77
2018-01-22T15:34:04.495Z,5.60
2018-01-22T15:36:31.935Z,8.57
2018-01-22T15:38:59.376Z,6.67
2018-01-22T15:41:26.811Z,8.30
2018-01-22T15:43:54.247Z,7.20
2018-01-22T15:46:21.715Z,6.30
2018-01-22T15:48:49.144Z,6.77
2018-01-22T15:51:16.587Z,5.10
2018-01-22T15:53:44.027Z,6.97
2018-01-22T15:56:11.476Z,4.40
2018-01-22T15:58:39.676Z,5.70
2018-01-22T16:01:07.883Z,4.80
2018-01-22T16:03:35.311Z,8.63
2018-01-22T16:06:02.766Z,8.77
2018-01-22T16:08:30.195Z,6.53
2018-01-22T16:10:58.407Z,8.53
2018-01-22T16:13:26.623Z,10.17
2018-01-22T16:15:54.312Z,6.80
2018-01-22T16:18:21.751Z,8.00
2018-01-22T16:20:49.259Z,6.80
2018-01-22T16:23:17.463Z,9.40
2018-01-22T16:25:45.667Z,11.60
2018-01-22T16:28:13.123Z,10.23
2018-01-22T16:30:40.551Z,11.53
2018-01-22T16:33:08.004Z,10.63
2018-01-22T16:35:36.204Z,12.57
2018-01-22T16:38:04.489Z,11.83
2018-01-22T16:40:32.362Z,9.97
2018-01-22T16:43:00.094Z,12.40
2018-01-22T16:45:27.939Z,12.13
2018-01-22T16:47:57.319Z,14.93
2018-01-22T16:50:24.913Z,19.00
2018-01-22T16:52:52.355Z,19.40
2018-01-22T16:55:20.591Z,16.43
2018-01-22T16:57:48.031Z,17.50
2018-01-22T17:00:16.243Z,13.27
2018-01-22T17:02:43.720Z,15.60
2018-01-22T17:05:11.947Z,17.97
2018-01-22T17:07:40.204Z,14.00
2018-01-22T17:10:08.838Z,16.23
2018-01-22T17:12:36.267Z,18.70
2018-01-22T17:15:04.485Z,16.10
2018-01-22T17:17:31.975Z,12.67
2018-01-22T17:19:59.456Z,12.40
2018-01-22T17:22:27.739Z,13.90
2018-01-22T17:24:55.191Z,13.87
2018-01-22T17:27:22.636Z,19.60
2018-01-22T17:29:50.071Z,14.40
2018-01-22T17:32:17.516Z,19.43
2018-01-22T17:34:44.957Z,25.17
2018-01-22T17:37:13.159Z,13.63
2018-01-22T17:39:41.363Z,23.50
2018-01-22T17:42:09.579Z,19.57
2018-01-22T17:44:37.011Z,22.37
2018-01-22T17:47:04.453Z,16.70
2018-01-22T17:49:31.891Z,11.40
2018-01-22T17:52:00.095Z,11.70
2018-01-22T17:54:28.300Z,29.13
2018-01-22T17:56:56.511Z,22.70
2018-01-22T17:59:23.951Z,21.30
2018-01-22T18:01:51.441Z,19.97
2018-01-22T18:04:18.882Z,16.67
2018-01-22T18:06:46.424Z,11.50
2018-01-22T18:09:14.627Z,10.90
2018-01-22T18:11:42.069Z,16.20
2018-01-22T18:14:09.545Z,19.10
2018-01-22T18:16:36.982Z,17.30
2018-01-22T18:19:04.457Z,37.40
2018-01-22T18:21:31.929Z,28.40
2018-01-22T18:23:59.417Z,47.57
2018-01-22T18:26:27.669Z,31.60
2018-01-22T18:28:55.093Z,17.00
2018-01-22T18:31:23.295Z,12.03
2018-01-22T18:33:51.499Z,13.30
2018-01-22T18:36:18.939Z,11.40
2018-01-22T18:38:46.407Z,9.70
2018-01-22T18:41:14.611Z,10.80
2018-01-22T18:43:42.093Z,9.13
2018-01-22T18:46:09.488Z,8.67
2018-01-22T18:48:36.931Z,9.90
2018-01-22T18:51:04.420Z,9.40
2018-01-22T18:53:31.851Z,11.87
2018-01-22T18:56:00.122Z,15.50
2018-01-22T18:58:28.274Z,14.93
2018-01-22T19:00:55.703Z,20.70
2018-01-22T19:03:23.202Z,13.80
2018-01-22T19:05:50.630Z,10.60
2018-01-22T19:08:18.123Z,14.47
2018-01-22T19:10:45.544Z,12.83
2018-01-22T19:13:13.759Z,12.27
2018-01-22T19:15:41.953Z,13.20
2018-01-22T19:18:09.403Z,13.47
2018-01-22T19:20:36.891Z,13.77
2018-01-22T19:23:04.367Z,11.43
2018-01-22T19:25:31.796Z,15.10
2018-01-22T19:27:59.235Z,17.30
2018-01-22T19:30:26.721Z,18.80
2018-01-22T19:32:54.147Z,17.20
2018-01-22T19:35:21.587Z,14.57
2018-01-22T19:37:49.813Z,14.43
2018-01-22T19:40:17.267Z,18.30
2018-01-22T19:42:45.526Z,15.33
2018-01-22T19:45:12.947Z,16.73
2018-01-22T19:47:41.156Z,11.73
2018-01-22T19:50:09.363Z,15.57
2018-01-22T19:52:36.862Z,16.00
2018-01-22T19:55:04.339Z,13.90
2018-01-22T19:57:31.771Z,15.07
2018-01-22T19:59:59.209Z,17.87
2018-01-22T20:02:26.651Z,19.73
2018-01-22T20:04:54.919Z,20.33
2018-01-22T20:07:22.398Z,20.07
2018-01-22T20:09:49.829Z,17.67
2018-01-22T20:12:17.263Z,19.23
2018-01-22T20:14:44.699Z,15.90
2018-01-22T20:17:12.217Z,16.53
2018-01-22T20:19:39.708Z,20.70
2018-01-22T20:22:07.147Z,16.60
2018-01-22T20:24:34.583Z,18.70
2018-01-22T20:27:02.022Z,22.33
2018-01-22T20:29:29.544Z,25.00
2018-01-22T20:31:57.039Z,27.90
2018-01-22T20:34:24.471Z,25.00
2018-01-22T20:36:51.958Z,32.33
2018-01-22T20:39:19.430Z,17.63
2018-01-22T20:41:46.906Z,20.00
2018-01-22T20:44:14.394Z,21.00
2018-01-22T20:46:41.875Z,23.67
2018-01-22T20:49:10.137Z,18.93
2018-01-22T20:51:38.339Z,21.17
2018-01-22T20:54:05.869Z,20.40
2018-01-22T20:56:34.194Z,22.43
2018-01-22T20:59:01.680Z,20.40
2018-01-22T21:01:29.116Z,21.90
2018-01-22T21:03:56.593Z,24.37
2018-01-22T21:06:24.026Z,26.03
2018-01-22T21:08:51.510Z,27.73
2018-01-22T21:11:19.002Z,22.80
2018-01-22T21:13:47.186Z,23.80
2018-01-22T21:16:15.423Z,22.20
2018-01-22T21:18:42.905Z,19.97
2018-01-22T21:21:10.391Z,19.13
2018-01-22T21:23:37.886Z,21.03
2018-01-22T21:26:05.370Z,24.20
2018-01-22T21:28:32.844Z,21.30
2018-01-22T21:31:00.351Z,18.70
2018-01-22T21:33:27.823Z,16.23
2018-01-22T21:35:56.235Z,21.47
2018-01-22T21:38:23.691Z,21.10
2018-01-22T21:40:51.136Z,19.07
2018-01-22T21:43:19.378Z,20.63
2018-01-22T21:45:46.859Z,19.57
2018-01-22T21:48:14.338Z,18.80
2018-01-22T21:50:41.808Z,22.80
2018-01-22T21:53:09.282Z,18.10
2018-01-22T21:55:36.703Z,19.20
2018-01-22T21:58:04.147Z,17.47
2018-01-22T22:00:31.629Z,20.50
2018-01-22T22:02:59.097Z,18.87
2018-01-22T22:05:26.519Z,17.83
2018-01-22T22:07:54.005Z,23.13
2018-01-22T22:10:21.423Z,17.20
2018-01-22T22:12:48.863Z,14.87
2018-01-22T22:15:16.299Z,14.97
2018-01-22T22:17:43.781Z,12.57
2018-01-22T22:20:12.018Z,13.37
2018-01-22T22:22:39.493Z,14.07
2018-01-22T22:25:06.915Z,12.53
2018-01-22T22:27:34.363Z,16.57
2018-01-22T22:30:01.801Z,17.00
2018-01-22T22:32:30.004Z,16.47
2018-01-22T22:34:57.439Z,18.20
2018-01-22T22:37:24.883Z,15.37
2018-01-22T22:39:52.316Z,17.30
2018-01-22T22:42:19.755Z,15.13
2018-01-22T22:44:47.186Z,15.63
2018-01-22T22:47:15.407Z,16.13
2018-01-22T22:49:43.607Z,16.93
2018-01-22T22:52:11.815Z,14.53
2018-01-22T22:54:39.308Z,12.53
2018-01-22T22:57:06.732Z,14.10
2018-01-22T22:59:34.163Z,11.90
2018-01-22T23:02:01.603Z,13.03
2018-01-22T23:04:29.044Z,12.60
2018-01-22T23:06:56.527Z,12.30
2018-01-22T23:09:23.959Z,11.83
2018-01-22T23:11:52.170Z,13.33
2018-01-22T23:14:20.368Z,13.03
2018-01-22T23:16:48.615Z,12.47
2018-01-22T23:19:16.052Z,13.83
2018-01-22T23:21:44.264Z,12.07
2018-01-22T23:24:11.696Z,11.43
2018-01-22T23:26:39.143Z,15.40
2018-01-22T23:29:06.579Z,12.80
2018-01-22T23:31:34.023Z,12.13
2018-01-22T23:34:01.467Z,14.50
2018-01-22T23:36:28.907Z,14.47
2018-01-22T23:38:56.340Z,11.33
2018-01-22T23:41:23.771Z,13.33
2018-01-22T23:43:51.215Z,15.10
2018-01-22T23:46:18.648Z,13.10
2018-01-22T23:48:46.088Z,12.80
2018-01-22T23:51:13.523Z,12.13
2018-01-22T23:53:41.731Z,11.83
2018-01-22T23:56:09.181Z,13.37
2018-01-22T23:58:36.608Z,11.23
